sensor_id;sensor_type;location;lat;lon;timestamp;temperature;humidity
19947;DHT22;10135;50.702;7.276;2023-10-08T05:31:45;19.70;57.00
19947;DHT22;10135;50.702;7.276;2023-10-08T05:33:46;19.80;56.70
19947;DHT22;10135;50.702;7.276;2023-10-08T05:36:04;19.80;56.80
19947;DHT22;10135;50.702;7.276;2023-10-08T05:38:13;19.80;57.40
19947;DHT22;10135;50.702;7.276;2023-10-08T05:40:31;19.80;56.70
19947;DHT22;10135;50.702;7.276;2023-10-08T05:42:54;19.70;56.70
19947;DHT22;10135;50.702;7.276;2023-10-08T05:45:01;19.80;56.70
19947;DHT22;10135;50.702;7.276;2023-10-08T05:47:11;19.80;56.70
19947;DHT22;10135;50.702;7.276;2023-10-08T05:49:29;19.70;56.70
19947;DHT22;10135;50.702;7.276;2023-10-08T05:51:33;19.70;56.70
19947;DHT22;10135;50.702;7.276;2023-10-08T05:53:47;19.70;56.70
19947;DHT22;10135;50.702;7.276;2023-10-08T05:55:50;19.70;56.70
19947;DHT22;10135;50.702;7.276;2023-10-08T05:58:05;19.70;56.80
19947;DHT22;10135;50.702;7.276;2023-10-08T06:00:19;19.70;57.00
19947;DHT22;10135;50.702;7.276;2023-10-08T06:02:43;19.70;56.90
19947;DHT22;10135;50.702;7.276;2023-10-08T06:04:46;19.70;57.00
19947;DHT22;10135;50.702;7.276;2023-10-08T06:07:05;19.70;57.00
19947;DHT22;10135;50.702;7.276;2023-10-08T06:09:33;19.70;57.00
19947;DHT22;10135;50.702;7.276;2023-10-08T06:11:38;19.70;57.10
19947;DHT22;10135;50.702;7.276;2023-10-08T06:13:45;19.70;57.20
19947;DHT22;10135;50.702;7.276;2023-10-08T06:15:51;19.70;57.20
19947;DHT22;10135;50.702;7.276;2023-10-08T06:17:55;19.70;57.30
19947;DHT22;10135;50.702;7.276;2023-10-08T06:19:56;19.70;57.20
19947;DHT22;10135;50.702;7.276;2023-10-08T06:21:57;19.70;57.90
19947;DHT22;10135;50.702;7.276;2023-10-08T06:23:57;19.70;57.50
19947;DHT22;10135;50.702;7.276;2023-10-08T06:25:58;19.60;57.10
19947;DHT22;10135;50.702;7.276;2023-10-08T06:28:05;19.60;57.20
19947;DHT22;10135;50.702;7.276;2023-10-08T06:30:12;19.60;57.80
19947;DHT22;10135;50.702;7.276;2023-10-08T06:32:17;19.50;57.20
19947;DHT22;10135;50.702;7.276;2023-10-08T06:34:22;19.50;57.20
19947;DHT22;10135;50.702;7.276;2023-10-08T06:36:28;19.50;57.30
19947;DHT22;10135;50.702;7.276;2023-10-08T06:38:30;19.50;57.40
19947;DHT22;10135;50.702;7.276;2023-10-08T06:40:32;19.50;57.50
19947;DHT22;10135;50.702;7.276;2023-10-08T06:42:38;19.50;57.60
19947;DHT22;10135;50.702;7.276;2023-10-08T06:44:39;19.50;57.60
19947;DHT22;10135;50.702;7.276;2023-10-08T06:46:43;19.50;57.70
19947;DHT22;10135;50.702;7.276;2023-10-08T06:48:43;19.50;57.70
19947;DHT22;10135;50.702;7.276;2023-10-08T06:50:50;19.50;57.70
19947;DHT22;10135;50.702;7.276;2023-10-08T06:52:57;19.50;57.90
19947;DHT22;10135;50.702;7.276;2023-10-08T06:54:57;19.50;57.70
19947;DHT22;10135;50.702;7.276;2023-10-08T06:57:03;19.50;57.70
19947;DHT22;10135;50.702;7.276;2023-10-08T06:59:03;19.60;57.70
19947;DHT22;10135;50.702;7.276;2023-10-08T07:01:08;19.60;57.70
19947;DHT22;10135;50.702;7.276;2023-10-08T07:03:14;19.60;57.80
19947;DHT22;10135;50.702;7.276;2023-10-08T07:05:16;19.60;57.70
19947;DHT22;10135;50.702;7.276;2023-10-08T07:07:22;19.60;57.80
19947;DHT22;10135;50.702;7.276;2023-10-08T07:09:23;19.60;57.80
19947;DHT22;10135;50.702;7.276;2023-10-08T07:11:29;19.70;57.90
19947;DHT22;10135;50.702;7.276;2023-10-08T07:13:35;19.70;57.90
19947;DHT22;10135;50.702;7.276;2023-10-08T07:15:37;19.80;58.00
19947;DHT22;10135;50.702;7.276;2023-10-08T07:17:40;19.80;58.00
19947;DHT22;10135;50.702;7.276;2023-10-08T07:19:43;19.80;58.00
19947;DHT22;10135;50.702;7.276;2023-10-08T07:21:47;19.80;58.00
19947;DHT22;10135;50.702;7.276;2023-10-08T07:23:49;19.90;58.00
19947;DHT22;10135;50.702;7.276;2023-10-08T07:26:00;19.90;58.00
19947;DHT22;10135;50.702;7.276;2023-10-08T07:28:11;19.90;58.00
19947;DHT22;10135;50.702;7.276;2023-10-08T07:30:13;19.90;57.90
19947;DHT22;10135;50.702;7.276;2023-10-08T07:32:18;20.00;58.00
19947;DHT22;10135;50.702;7.276;2023-10-08T07:34:20;20.00;57.90
19947;DHT22;10135;50.702;7.276;2023-10-08T07:36:24;20.00;58.00
19947;DHT22;10135;50.702;7.276;2023-10-08T07:38:26;20.10;58.10
19947;DHT22;10135;50.702;7.276;2023-10-08T07:40:30;20.10;58.10
19947;DHT22;10135;50.702;7.276;2023-10-08T07:42:31;20.20;58.20
19947;DHT22;10135;50.702;7.276;2023-10-08T07:44:32;20.20;58.20
19947;DHT22;10135;50.702;7.276;2023-10-08T07:46:35;20.20;58.10
19947;DHT22;10135;50.702;7.276;2023-10-08T07:48:36;20.20;58.00
19947;DHT22;10135;50.702;7.276;2023-10-08T07:50:44;20.30;58.10
19947;DHT22;10135;50.702;7.276;2023-10-08T07:52:46;20.30;58.10
19947;DHT22;10135;50.702;7.276;2023-10-08T07:54:47;20.30;58.00
19947;DHT22;10135;50.702;7.276;2023-10-08T07:56:48;20.30;58.00
19947;DHT22;10135;50.702;7.276;2023-10-08T07:58:52;20.40;58.00
19947;DHT22;10135;50.702;7.276;2023-10-08T08:00:56;20.40;58.00
19947;DHT22;10135;50.702;7.276;2023-10-08T08:02:56;20.40;58.00
19947;DHT22;10135;50.702;7.276;2023-10-08T08:04:57;20.40;57.90
19947;DHT22;10135;50.702;7.276;2023-10-08T08:06:58;20.40;57.90
19947;DHT22;10135;50.702;7.276;2023-10-08T08:09:04;20.50;58.00
19947;DHT22;10135;50.702;7.276;2023-10-08T08:11:19;20.50;58.00
19947;DHT22;10135;50.702;7.276;2023-10-08T08:13:26;20.50;58.00
19947;DHT22;10135;50.702;7.276;2023-10-08T08:15:28;20.60;58.00
19947;DHT22;10135;50.702;7.276;2023-10-08T08:17:29;20.60;58.00
19947;DHT22;10135;50.702;7.276;2023-10-08T08:19:31;20.60;58.00
19947;DHT22;10135;50.702;7.276;2023-10-08T08:21:31;20.70;58.00
19947;DHT22;10135;50.702;7.276;2023-10-08T08:23:32;20.70;58.00
19947;DHT22;10135;50.702;7.276;2023-10-08T08:25:40;20.70;58.00
19947;DHT22;10135;50.702;7.276;2023-10-08T08:28:05;20.80;58.00
19947;DHT22;10135;50.702;7.276;2023-10-08T08:30:08;20.90;58.00
19947;DHT22;10135;50.702;7.276;2023-10-08T08:32:15;20.90;58.00
19947;DHT22;10135;50.702;7.276;2023-10-08T08:34:21;21.00;58.00
19947;DHT22;10135;50.702;7.276;2023-10-08T08:36:24;21.10;58.00
19947;DHT22;10135;50.702;7.276;2023-10-08T08:38:25;21.20;58.00
19947;DHT22;10135;50.702;7.276;2023-10-08T08:40:25;21.30;57.90
19947;DHT22;10135;50.702;7.276;2023-10-08T08:42:28;21.30;57.80
19947;DHT22;10135;50.702;7.276;2023-10-08T08:44:36;21.40;57.70
19947;DHT22;10135;50.702;7.276;2023-10-08T08:46:46;21.40;57.60
19947;DHT22;10135;50.702;7.276;2023-10-08T08:48:48;21.50;57.60
19947;DHT22;10135;50.702;7.276;2023-10-08T08:50:51;21.50;57.50
19947;DHT22;10135;50.702;7.276;2023-10-08T08:52:53;21.50;57.50
19947;DHT22;10135;50.702;7.276;2023-10-08T08:54:54;21.50;57.40
19947;DHT22;10135;50.702;7.276;2023-10-08T08:56:55;21.50;57.40
19947;DHT22;10135;50.702;7.276;2023-10-08T08:58:57;21.50;57.50
19947;DHT22;10135;50.702;7.276;2023-10-08T09:01:00;21.60;57.50
19947;DHT22;10135;50.702;7.276;2023-10-08T09:03:03;21.60;57.50
19947;DHT22;10135;50.702;7.276;2023-10-08T09:05:07;21.60;57.50
19947;DHT22;10135;50.702;7.276;2023-10-08T09:07:35;21.60;57.50
19947;DHT22;10135;50.702;7.276;2023-10-08T09:09:35;21.60;57.40
19947;DHT22;10135;50.702;7.276;2023-10-08T09:11:40;21.60;58.00
19947;DHT22;10135;50.702;7.276;2023-10-08T09:13:44;21.60;57.40
19947;DHT22;10135;50.702;7.276;2023-10-08T09:15:44;21.60;57.50
19947;DHT22;10135;50.702;7.276;2023-10-08T09:17:45;21.60;57.60
19947;DHT22;10135;50.702;7.276;2023-10-08T09:19:46;21.60;57.50
19947;DHT22;10135;50.702;7.276;2023-10-08T09:24:03;21.60;57.50
19947;DHT22;10135;50.702;7.276;2023-10-08T09:26:13;21.60;57.50
19947;DHT22;10135;50.702;7.276;2023-10-08T09:28:15;21.60;57.50
19947;DHT22;10135;50.702;7.276;2023-10-08T09:30:16;21.60;57.60
19947;DHT22;10135;50.702;7.276;2023-10-08T09:32:19;21.70;57.70
19947;DHT22;10135;50.702;7.276;2023-10-08T09:34:28;21.70;57.70
19947;DHT22;10135;50.702;7.276;2023-10-08T09:36:31;21.70;57.80
19947;DHT22;10135;50.702;7.276;2023-10-08T09:38:35;21.80;57.80
19947;DHT22;10135;50.702;7.276;2023-10-08T09:40:38;21.90;57.90
19947;DHT22;10135;50.702;7.276;2023-10-08T09:42:42;21.90;57.80
19947;DHT22;10135;50.702;7.276;2023-10-08T09:44:43;22.00;57.80
19947;DHT22;10135;50.702;7.276;2023-10-08T09:46:51;22.00;57.70
19947;DHT22;10135;50.702;7.276;2023-10-08T09:49:00;22.00;57.70
19947;DHT22;10135;50.702;7.276;2023-10-08T09:51:02;22.10;57.70
19947;DHT22;10135;50.702;7.276;2023-10-08T09:53:13;22.10;57.60
19947;DHT22;10135;50.702;7.276;2023-10-08T09:55:18;22.20;57.70
19947;DHT22;10135;50.702;7.276;2023-10-08T09:57:18;22.30;57.70
19947;DHT22;10135;50.702;7.276;2023-10-08T09:59:20;22.30;57.70
19947;DHT22;10135;50.702;7.276;2023-10-08T10:01:21;22.30;57.60
19947;DHT22;10135;50.702;7.276;2023-10-08T10:03:24;22.40;57.70
19947;DHT22;10135;50.702;7.276;2023-10-08T10:05:29;22.40;57.70
19947;DHT22;10135;50.702;7.276;2023-10-08T10:07:32;22.40;57.70
19947;DHT22;10135;50.702;7.276;2023-10-08T10:09:32;22.50;57.70
19947;DHT22;10135;50.702;7.276;2023-10-08T10:11:36;22.50;57.70
19947;DHT22;10135;50.702;7.276;2023-10-08T10:13:45;22.50;57.60
19947;DHT22;10135;50.702;7.276;2023-10-08T10:15:58;22.50;57.60
19947;DHT22;10135;50.702;7.276;2023-10-08T10:18:08;22.50;57.60
19947;DHT22;10135;50.702;7.276;2023-10-08T10:20:14;22.60;57.70
19947;DHT22;10135;50.702;7.276;2023-10-08T10:22:30;22.60;57.70
19947;DHT22;10135;50.702;7.276;2023-10-08T10:24:35;22.70;58.50
19947;DHT22;10135;50.702;7.276;2023-10-08T10:26:37;22.70;57.70
19947;DHT22;10135;50.702;7.276;2023-10-08T10:28:40;22.70;57.70
19947;DHT22;10135;50.702;7.276;2023-10-08T10:30:41;22.70;57.60
19947;DHT22;10135;50.702;7.276;2023-10-08T10:32:44;22.70;57.50
19947;DHT22;10135;50.702;7.276;2023-10-08T10:34:48;22.70;57.60
19947;DHT22;10135;50.702;7.276;2023-10-08T10:36:52;22.70;57.50
19947;DHT22;10135;50.702;7.276;2023-10-08T10:38:59;22.70;57.50
19947;DHT22;10135;50.702;7.276;2023-10-08T10:41:03;22.70;57.50
19947;DHT22;10135;50.702;7.276;2023-10-08T10:43:09;22.70;57.50
19947;DHT22;10135;50.702;7.276;2023-10-08T10:45:16;22.70;57.60
19947;DHT22;10135;50.702;7.276;2023-10-08T10:47:35;22.80;57.80
19947;DHT22;10135;50.702;7.276;2023-10-08T10:49:46;22.80;57.70
19947;DHT22;10135;50.702;7.276;2023-10-08T10:51:53;22.80;57.70
19947;DHT22;10135;50.702;7.276;2023-10-08T10:53:57;22.80;57.70
19947;DHT22;10135;50.702;7.276;2023-10-08T10:56:08;22.80;57.60
19947;DHT22;10135;50.702;7.276;2023-10-08T10:58:11;22.80;57.70
19947;DHT22;10135;50.702;7.276;2023-10-08T11:00:12;22.90;57.80
19947;DHT22;10135;50.702;7.276;2023-10-08T11:02:39;22.90;57.80
19947;DHT22;10135;50.702;7.276;2023-10-08T11:04:43;22.90;57.80
19947;DHT22;10135;50.702;7.276;2023-10-08T11:06:51;22.90;57.80
19947;DHT22;10135;50.702;7.276;2023-10-08T11:08:57;22.90;57.80
19947;DHT22;10135;50.702;7.276;2023-10-08T11:10:58;23.00;57.80
19947;DHT22;10135;50.702;7.276;2023-10-08T11:12:59;23.00;57.80
19947;DHT22;10135;50.702;7.276;2023-10-08T11:15:01;23.00;57.80
19947;DHT22;10135;50.702;7.276;2023-10-08T11:17:25;23.00;57.90
19947;DHT22;10135;50.702;7.276;2023-10-08T11:19:31;23.00;58.00
19947;DHT22;10135;50.702;7.276;2023-10-08T11:21:32;23.10;57.90
19947;DHT22;10135;50.702;7.276;2023-10-08T11:23:42;23.10;57.90
19947;DHT22;10135;50.702;7.276;2023-10-08T11:25:57;23.10;58.00
19947;DHT22;10135;50.702;7.276;2023-10-08T11:28:02;23.20;58.20
19947;DHT22;10135;50.702;7.276;2023-10-08T11:30:09;23.20;58.00
19947;DHT22;10135;50.702;7.276;2023-10-08T11:32:11;23.20;58.00
19947;DHT22;10135;50.702;7.276;2023-10-08T11:34:13;23.20;58.00
19947;DHT22;10135;50.702;7.276;2023-10-08T11:36:17;23.30;58.10
19947;DHT22;10135;50.702;7.276;2023-10-08T11:38:26;23.30;58.20
19947;DHT22;10135;50.702;7.276;2023-10-08T11:40:27;23.30;58.10
19947;DHT22;10135;50.702;7.276;2023-10-08T11:42:49;23.30;58.10
19947;DHT22;10135;50.702;7.276;2023-10-08T11:44:51;23.30;58.10
19947;DHT22;10135;50.702;7.276;2023-10-08T11:46:52;23.40;58.10
19947;DHT22;10135;50.702;7.276;2023-10-08T11:48:54;23.40;58.10
19947;DHT22;10135;50.702;7.276;2023-10-08T11:51:01;23.40;58.10
19947;DHT22;10135;50.702;7.276;2023-10-08T11:53:06;23.40;58.20
19947;DHT22;10135;50.702;7.276;2023-10-08T11:55:07;23.50;58.10
19947;DHT22;10135;50.702;7.276;2023-10-08T11:57:16;23.50;58.20
19947;DHT22;10135;50.702;7.276;2023-10-08T11:59:22;23.50;58.20
19947;DHT22;10135;50.702;7.276;2023-10-08T12:01:26;23.50;58.10
19947;DHT22;10135;50.702;7.276;2023-10-08T12:03:27;23.50;58.10
19947;DHT22;10135;50.702;7.276;2023-10-08T12:05:28;23.50;58.10
19947;DHT22;10135;50.702;7.276;2023-10-08T12:07:29;23.50;58.10
19947;DHT22;10135;50.702;7.276;2023-10-08T12:09:30;23.60;58.20
19947;DHT22;10135;50.702;7.276;2023-10-08T12:11:30;23.60;58.20
19947;DHT22;10135;50.702;7.276;2023-10-08T12:13:31;23.60;58.20
19947;DHT22;10135;50.702;7.276;2023-10-08T12:15:33;23.60;58.10
19947;DHT22;10135;50.702;7.276;2023-10-08T12:17:39;23.60;58.10
19947;DHT22;10135;50.702;7.276;2023-10-08T12:19:40;23.60;58.10
19947;DHT22;10135;50.702;7.276;2023-10-08T12:21:45;23.60;58.10
19947;DHT22;10135;50.702;7.276;2023-10-08T12:23:47;23.60;58.20
19947;DHT22;10135;50.702;7.276;2023-10-08T12:25:52;23.60;58.10
19947;DHT22;10135;50.702;7.276;2023-10-08T12:27:55;23.70;58.20
19947;DHT22;10135;50.702;7.276;2023-10-08T12:29:57;23.70;58.20
19947;DHT22;10135;50.702;7.276;2023-10-08T12:31:59;23.70;58.20
19947;DHT22;10135;50.702;7.276;2023-10-08T12:34:08;23.70;58.20
19947;DHT22;10135;50.702;7.276;2023-10-08T12:36:12;23.70;58.20
19947;DHT22;10135;50.702;7.276;2023-10-08T12:38:13;23.70;58.20
19947;DHT22;10135;50.702;7.276;2023-10-08T12:40:14;23.70;58.10
19947;DHT22;10135;50.702;7.276;2023-10-08T12:42:24;23.70;58.10
19947;DHT22;10135;50.702;7.276;2023-10-08T12:44:25;23.70;58.40
19947;DHT22;10135;50.702;7.276;2023-10-08T12:46:27;23.70;58.10
19947;DHT22;10135;50.702;7.276;2023-10-08T12:48:31;23.70;58.10
19947;DHT22;10135;50.702;7.276;2023-10-08T12:50:32;23.60;58.10
19947;DHT22;10135;50.702;7.276;2023-10-08T12:52:44;23.60;58.20
19947;DHT22;10135;50.702;7.276;2023-10-08T12:54:53;23.60;58.30
19947;DHT22;10135;50.702;7.276;2023-10-08T12:56:55;23.50;58.30
19947;DHT22;10135;50.702;7.276;2023-10-08T12:58:58;23.50;58.40
19947;DHT22;10135;50.702;7.276;2023-10-08T13:00:59;23.50;58.50
19947;DHT22;10135;50.702;7.276;2023-10-08T13:03:04;23.50;58.50
19947;DHT22;10135;50.702;7.276;2023-10-08T13:05:21;23.50;59.20
19947;DHT22;10135;50.702;7.276;2023-10-08T13:07:28;23.40;58.60
19947;DHT22;10135;50.702;7.276;2023-10-08T13:09:33;23.30;58.60
19947;DHT22;10135;50.702;7.276;2023-10-08T13:11:37;23.40;58.70
19947;DHT22;10135;50.702;7.276;2023-10-08T13:13:39;23.30;58.70
19947;DHT22;10135;50.702;7.276;2023-10-08T13:15:40;23.30;58.70
19947;DHT22;10135;50.702;7.276;2023-10-08T13:17:42;23.30;58.80
19947;DHT22;10135;50.702;7.276;2023-10-08T13:19:43;23.30;58.80
19947;DHT22;10135;50.702;7.276;2023-10-08T13:21:46;23.20;58.90
19947;DHT22;10135;50.702;7.276;2023-10-08T13:23:48;23.20;59.00
19947;DHT22;10135;50.702;7.276;2023-10-08T13:25:52;23.20;59.00
19947;DHT22;10135;50.702;7.276;2023-10-08T13:27:54;23.20;59.10
19947;DHT22;10135;50.702;7.276;2023-10-08T13:29:55;23.20;59.10
19947;DHT22;10135;50.702;7.276;2023-10-08T13:31:55;23.20;59.10
19947;DHT22;10135;50.702;7.276;2023-10-08T13:33:57;23.20;59.20
19947;DHT22;10135;50.702;7.276;2023-10-08T13:36:01;23.20;59.20
19947;DHT22;10135;50.702;7.276;2023-10-08T13:38:01;23.20;59.20
19947;DHT22;10135;50.702;7.276;2023-10-08T13:40:09;23.20;59.30
19947;DHT22;10135;50.702;7.276;2023-10-08T13:42:15;23.20;59.30
19947;DHT22;10135;50.702;7.276;2023-10-08T13:44:20;23.10;59.30
19947;DHT22;10135;50.702;7.276;2023-10-08T13:46:29;23.10;59.40
19947;DHT22;10135;50.702;7.276;2023-10-08T13:48:31;23.20;59.40
19947;DHT22;10135;50.702;7.276;2023-10-08T13:50:33;23.10;59.40
19947;DHT22;10135;50.702;7.276;2023-10-08T13:52:36;23.20;59.50
19947;DHT22;10135;50.702;7.276;2023-10-08T13:54:39;23.20;59.50
19947;DHT22;10135;50.702;7.276;2023-10-08T13:56:47;23.10;59.40
19947;DHT22;10135;50.702;7.276;2023-10-08T13:58:48;23.20;59.50
19947;DHT22;10135;50.702;7.276;2023-10-08T14:00:51;23.20;59.50
19947;DHT22;10135;50.702;7.276;2023-10-08T14:02:53;23.10;59.40
19947;DHT22;10135;50.702;7.276;2023-10-08T14:04:54;23.10;59.50
19947;DHT22;10135;50.702;7.276;2023-10-08T14:06:54;23.20;59.60
19947;DHT22;10135;50.702;7.276;2023-10-08T14:08:55;23.20;59.60
19947;DHT22;10135;50.702;7.276;2023-10-08T14:10:56;23.20;59.60
19947;DHT22;10135;50.702;7.276;2023-10-08T14:13:03;23.20;59.70
19947;DHT22;10135;50.702;7.276;2023-10-08T14:15:04;23.10;59.60
19947;DHT22;10135;50.702;7.276;2023-10-08T14:17:07;23.10;59.70
19947;DHT22;10135;50.702;7.276;2023-10-08T14:19:09;23.10;59.80
19947;DHT22;10135;50.702;7.276;2023-10-08T14:21:12;23.20;60.00
19947;DHT22;10135;50.702;7.276;2023-10-08T14:23:13;23.20;59.90
19947;DHT22;10135;50.702;7.276;2023-10-08T14:25:16;23.10;59.90
19947;DHT22;10135;50.702;7.276;2023-10-08T14:27:18;23.10;60.00
19947;DHT22;10135;50.702;7.276;2023-10-08T14:29:25;23.10;60.10
19947;DHT22;10135;50.702;7.276;2023-10-08T14:31:27;23.10;60.10
19947;DHT22;10135;50.702;7.276;2023-10-08T14:33:28;23.10;60.20
19947;DHT22;10135;50.702;7.276;2023-10-08T14:35:31;23.10;60.30
19947;DHT22;10135;50.702;7.276;2023-10-08T14:37:50;23.10;60.30
19947;DHT22;10135;50.702;7.276;2023-10-08T14:40:10;23.10;60.30
19947;DHT22;10135;50.702;7.276;2023-10-08T14:42:29;23.10;60.30
19947;DHT22;10135;50.702;7.276;2023-10-08T14:44:48;23.20;60.40
19947;DHT22;10135;50.702;7.276;2023-10-08T14:46:51;23.10;60.30
19947;DHT22;10135;50.702;7.276;2023-10-08T14:48:52;23.10;60.30
19947;DHT22;10135;50.702;7.276;2023-10-08T14:50:52;23.20;60.40
19947;DHT22;10135;50.702;7.276;2023-10-08T14:52:54;23.20;60.40
19947;DHT22;10135;50.702;7.276;2023-10-08T14:54:55;23.10;60.50
19947;DHT22;10135;50.702;7.276;2023-10-08T14:56:57;23.10;60.50
19947;DHT22;10135;50.702;7.276;2023-10-08T14:58:58;23.10;60.60
19947;DHT22;10135;50.702;7.276;2023-10-08T15:00:59;23.10;60.70
19947;DHT22;10135;50.702;7.276;2023-10-08T15:02:59;23.10;60.70
19947;DHT22;10135;50.702;7.276;2023-10-08T15:05:07;23.10;60.70
19947;DHT22;10135;50.702;7.276;2023-10-08T15:07:08;23.00;60.70
19947;DHT22;10135;50.702;7.276;2023-10-08T15:09:11;23.00;60.70
19947;DHT22;10135;50.702;7.276;2023-10-08T15:11:18;23.00;61.60
19947;DHT22;10135;50.702;7.276;2023-10-08T15:13:19;23.00;60.90
19947;DHT22;10135;50.702;7.276;2023-10-08T15:15:20;23.00;60.90
19947;DHT22;10135;50.702;7.276;2023-10-08T15:17:25;23.00;60.90
19947;DHT22;10135;50.702;7.276;2023-10-08T15:19:26;22.90;60.90
19947;DHT22;10135;50.702;7.276;2023-10-08T15:21:27;23.00;61.10
19947;DHT22;10135;50.702;7.276;2023-10-08T15:23:29;22.90;61.00
19947;DHT22;10135;50.702;7.276;2023-10-08T15:25:32;22.90;61.10
19947;DHT22;10135;50.702;7.276;2023-10-08T15:27:33;22.90;61.20
19947;DHT22;10135;50.702;7.276;2023-10-08T15:29:34;22.90;61.30
19947;DHT22;10135;50.702;7.276;2023-10-08T15:31:35;22.90;61.40
19947;DHT22;10135;50.702;7.276;2023-10-08T15:33:36;22.80;61.40
19947;DHT22;10135;50.702;7.276;2023-10-08T15:35:38;22.80;61.50
19947;DHT22;10135;50.702;7.276;2023-10-08T15:37:41;22.80;61.60
19947;DHT22;10135;50.702;7.276;2023-10-08T15:39:42;22.80;61.70
19947;DHT22;10135;50.702;7.276;2023-10-08T15:41:43;22.80;61.70
19947;DHT22;10135;50.702;7.276;2023-10-08T15:43:43;22.80;61.80
19947;DHT22;10135;50.702;7.276;2023-10-08T15:45:45;22.80;61.80
19947;DHT22;10135;50.702;7.276;2023-10-08T15:47:46;22.80;61.80
19947;DHT22;10135;50.702;7.276;2023-10-08T15:49:47;22.80;61.90
19947;DHT22;10135;50.702;7.276;2023-10-08T15:51:48;22.80;61.90
19947;DHT22;10135;50.702;7.276;2023-10-08T15:53:48;22.80;61.90
19947;DHT22;10135;50.702;7.276;2023-10-08T15:55:49;22.80;61.90
19947;DHT22;10135;50.702;7.276;2023-10-08T15:57:50;22.80;62.00
19947;DHT22;10135;50.702;7.276;2023-10-08T15:59:51;22.80;62.00
19947;DHT22;10135;50.702;7.276;2023-10-08T16:01:51;22.80;62.00
19947;DHT22;10135;50.702;7.276;2023-10-08T16:03:52;22.70;62.00
19947;DHT22;10135;50.702;7.276;2023-10-08T16:05:53;22.70;62.00
19947;DHT22;10135;50.702;7.276;2023-10-08T16:07:55;22.70;62.00
19947;DHT22;10135;50.702;7.276;2023-10-08T16:09:58;22.70;62.00
19947;DHT22;10135;50.702;7.276;2023-10-08T16:11:59;22.70;62.10
19947;DHT22;10135;50.702;7.276;2023-10-08T16:14:00;22.70;62.20
19947;DHT22;10135;50.702;7.276;2023-10-08T16:16:00;22.70;62.20
19947;DHT22;10135;50.702;7.276;2023-10-08T16:18:01;22.70;62.20
19947;DHT22;10135;50.702;7.276;2023-10-08T16:20:04;22.70;62.20
19947;DHT22;10135;50.702;7.276;2023-10-08T16:22:13;22.70;63.10
19947;DHT22;10135;50.702;7.276;2023-10-08T16:24:14;22.70;62.30
19947;DHT22;10135;50.702;7.276;2023-10-08T16:26:15;22.60;62.40
19947;DHT22;10135;50.702;7.276;2023-10-08T16:28:18;22.60;62.40
19947;DHT22;10135;50.702;7.276;2023-10-08T16:30:20;22.60;62.40
19947;DHT22;10135;50.702;7.276;2023-10-08T16:32:23;22.60;62.50
19947;DHT22;10135;50.702;7.276;2023-10-08T16:34:24;22.60;62.50
19947;DHT22;10135;50.702;7.276;2023-10-08T16:36:27;22.50;62.60
19947;DHT22;10135;50.702;7.276;2023-10-08T16:38:29;22.50;62.60
19947;DHT22;10135;50.702;7.276;2023-10-08T16:40:29;22.50;62.70
19947;DHT22;10135;50.702;7.276;2023-10-08T16:42:30;22.50;62.70
19947;DHT22;10135;50.702;7.276;2023-10-08T16:44:32;22.50;62.70
19947;DHT22;10135;50.702;7.276;2023-10-08T16:46:33;22.50;62.80
19947;DHT22;10135;50.702;7.276;2023-10-08T16:48:34;22.40;62.70
19947;DHT22;10135;50.702;7.276;2023-10-08T16:50:35;22.40;62.80
19947;DHT22;10135;50.702;7.276;2023-10-08T16:52:35;22.40;62.90
19947;DHT22;10135;50.702;7.276;2023-10-08T16:54:36;22.40;63.70
19947;DHT22;10135;50.702;7.276;2023-10-08T16:56:37;22.40;63.00
19947;DHT22;10135;50.702;7.276;2023-10-08T16:58:37;22.40;63.00
19947;DHT22;10135;50.702;7.276;2023-10-08T17:00:38;22.30;63.00
19947;DHT22;10135;50.702;7.276;2023-10-08T17:02:39;22.30;63.00
19947;DHT22;10135;50.702;7.276;2023-10-08T17:04:40;22.30;63.10
19947;DHT22;10135;50.702;7.276;2023-10-08T17:06:41;22.30;63.20
19947;DHT22;10135;50.702;7.276;2023-10-08T17:08:41;22.20;63.10
19947;DHT22;10135;50.702;7.276;2023-10-08T17:10:42;22.20;63.20
19947;DHT22;10135;50.702;7.276;2023-10-08T17:12:44;22.20;63.20
19947;DHT22;10135;50.702;7.276;2023-10-08T17:14:44;22.20;63.20
19947;DHT22;10135;50.702;7.276;2023-10-08T17:16:45;22.10;63.30
19947;DHT22;10135;50.702;7.276;2023-10-08T17:18:46;22.10;63.30
19947;DHT22;10135;50.702;7.276;2023-10-08T17:20:46;22.10;63.40
19947;DHT22;10135;50.702;7.276;2023-10-08T17:22:47;22.00;63.50
19947;DHT22;10135;50.702;7.276;2023-10-08T17:24:48;22.00;63.50
19947;DHT22;10135;50.702;7.276;2023-10-08T17:26:48;22.00;63.50
19947;DHT22;10135;50.702;7.276;2023-10-08T17:28:50;21.90;63.60
19947;DHT22;10135;50.702;7.276;2023-10-08T17:30:51;21.90;63.70
19947;DHT22;10135;50.702;7.276;2023-10-08T17:32:52;21.90;63.70
19947;DHT22;10135;50.702;7.276;2023-10-08T17:34:53;21.90;63.70
19947;DHT22;10135;50.702;7.276;2023-10-08T17:36:54;21.80;63.70
19947;DHT22;10135;50.702;7.276;2023-10-08T17:38:55;21.80;63.70
19947;DHT22;10135;50.702;7.276;2023-10-08T17:40:56;21.80;63.80
19947;DHT22;10135;50.702;7.276;2023-10-08T17:42:57;21.80;63.90
19947;DHT22;10135;50.702;7.276;2023-10-08T17:44:58;21.70;63.80
19947;DHT22;10135;50.702;7.276;2023-10-08T17:46:59;21.70;63.80
19947;DHT22;10135;50.702;7.276;2023-10-08T17:49:00;21.70;63.90
19947;DHT22;10135;50.702;7.276;2023-10-08T17:51:00;21.70;63.90
19947;DHT22;10135;50.702;7.276;2023-10-08T17:53:04;21.60;63.90
19947;DHT22;10135;50.702;7.276;2023-10-08T17:55:06;21.60;64.00
19947;DHT22;10135;50.702;7.276;2023-10-08T17:57:07;21.60;64.00
19947;DHT22;10135;50.702;7.276;2023-10-08T17:59:09;21.60;64.00
19947;DHT22;10135;50.702;7.276;2023-10-08T18:01:13;21.60;64.00
19947;DHT22;10135;50.702;7.276;2023-10-08T18:03:14;21.50;64.00
19947;DHT22;10135;50.702;7.276;2023-10-08T18:05:17;21.50;64.10
19947;DHT22;10135;50.702;7.276;2023-10-08T18:07:19;21.50;64.20
19947;DHT22;10135;50.702;7.276;2023-10-08T18:09:20;21.50;64.20
19947;DHT22;10135;50.702;7.276;2023-10-08T18:11:20;21.40;64.20
19947;DHT22;10135;50.702;7.276;2023-10-08T18:13:22;21.40;64.30
19947;DHT22;10135;50.702;7.276;2023-10-08T18:15:30;21.40;64.20
19947;DHT22;10135;50.702;7.276;2023-10-08T18:17:35;21.40;64.30
19947;DHT22;10135;50.702;7.276;2023-10-08T18:19:37;21.30;64.20
19947;DHT22;10135;50.702;7.276;2023-10-08T18:21:40;21.30;64.30
19947;DHT22;10135;50.702;7.276;2023-10-08T18:23:42;21.30;64.40
19947;DHT22;10135;50.702;7.276;2023-10-08T18:25:45;21.30;64.40
19947;DHT22;10135;50.702;7.276;2023-10-08T18:27:46;21.20;64.40
19947;DHT22;10135;50.702;7.276;2023-10-08T18:29:47;21.20;64.50
19947;DHT22;10135;50.702;7.276;2023-10-08T18:31:49;21.20;64.50
19947;DHT22;10135;50.702;7.276;2023-10-08T18:33:50;21.20;64.60
19947;DHT22;10135;50.702;7.276;2023-10-08T18:35:50;21.10;64.60